Terminal Aerodrome Forecast
Issued by NWS Austin/San Antonio, TX

Home | Current Version | Previous Version | Text Only | Print | Product List | Glossary On
Versions: 1 2 3 4 5 6 7 8 9 10 11 12 13 14
000
FTUS44 KEWX 232328
TAFAUS
TAF
KAUS 232328Z 2400/2506 16007KT P6SM SKC
     FM240800 VRB03KT 3SM BR SKC
     FM241000 33008KT P6SM SCT250
     FM241600 32012G22KT P6SM FEW250
     FM242300 33010KT P6SM SKC=

USA.gov is the U.S. government's official web portal to all federal, state and local government web resources and services.